Altenburg, Missouri
Current Conditions -  °F | °C
As of 5:52 AM on Sunday 25 Jan 2015 (Local Time) from KMDH Reporting Station
Light Rain Light Rain  
Wind Chill: 36°   Ceiling: 6500
Heat Index: 43°   Visibility: 10mi
Dew Point: 32°   Wind: 14mph
Humidity: 65%   Direction: 200°SSW
Pressure: 29.66"   Gusts: NA
Location:  37.63°N, 89.59°W
Report Text: KMDH 251152Z AUTO 20012KT 10SM -RA BKN065 OVC090 06/00 A2966 RMK AO2 RAB45 SLP043 P0000 60000 T00610000 10078 20044 56011
Loading
Personal Weather Stations






























Interactive Weather Map New forecast layout! Learn more

10-Day Weather Forecast

Advertisements
Track Severe Weather on mobile